sensor_id;sensor_type;location;lat;lon;timestamp;temperature;humidity
21559;DHT22;10940;48.890;8.240;2022-10-13T00:02:25;11.20;99.90
21559;DHT22;10940;48.890;8.240;2022-10-13T00:04:50;11.10;99.90
21559;DHT22;10940;48.890;8.240;2022-10-13T00:07:16;11.10;99.90
21559;DHT22;10940;48.890;8.240;2022-10-13T00:09:41;11.10;99.90
21559;DHT22;10940;48.890;8.240;2022-10-13T00:12:07;11.10;99.90
21559;DHT22;10940;48.890;8.240;2022-10-13T00:14:33;11.10;99.90
21559;DHT22;10940;48.890;8.240;2022-10-13T00:16:58;11.10;99.90
21559;DHT22;10940;48.890;8.240;2022-10-13T00:19:24;11.10;99.90
21559;DHT22;10940;48.890;8.240;2022-10-13T00:21:49;11.10;99.90
21559;DHT22;10940;48.890;8.240;2022-10-13T00:24:15;11.00;99.90
21559;DHT22;10940;48.890;8.240;2022-10-13T00:26:41;11.00;99.90
21559;DHT22;10940;48.890;8.240;2022-10-13T00:29:06;11.00;99.90
21559;DHT22;10940;48.890;8.240;2022-10-13T00:31:32;11.00;99.90
21559;DHT22;10940;48.890;8.240;2022-10-13T00:33:59;11.00;99.90
21559;DHT22;10940;48.890;8.240;2022-10-13T00:36:27;10.90;99.90
21559;DHT22;10940;48.890;8.240;2022-10-13T00:38:53;10.90;99.90
21559;DHT22;10940;48.890;8.240;2022-10-13T00:41:20;10.80;99.90
21559;DHT22;10940;48.890;8.240;2022-10-13T00:44:51;10.70;99.90
21559;DHT22;10940;48.890;8.240;2022-10-13T00:46:51;10.70;99.90
21559;DHT22;10940;48.890;8.240;2022-10-13T00:49:17;10.70;99.90
21559;DHT22;10940;48.890;8.240;2022-10-13T00:51:48;10.70;99.90
21559;DHT22;10940;48.890;8.240;2022-10-13T00:54:17;10.70;99.90
21559;DHT22;10940;48.890;8.240;2022-10-13T00:56:44;10.70;99.90
21559;DHT22;10940;48.890;8.240;2022-10-13T00:59:19;10.70;99.90
21559;DHT22;10940;48.890;8.240;2022-10-13T01:01:48;10.70;99.90
21559;DHT22;10940;48.890;8.240;2022-10-13T01:04:15;10.70;99.90
21559;DHT22;10940;48.890;8.240;2022-10-13T01:06:41;10.70;99.90
21559;DHT22;10940;48.890;8.240;2022-10-13T01:09:07;10.70;99.90
21559;DHT22;10940;48.890;8.240;2022-10-13T01:14:33;10.70;99.90
21559;DHT22;10940;48.890;8.240;2022-10-13T01:20:08;10.70;99.90
21559;DHT22;10940;48.890;8.240;2022-10-13T01:23:22;10.80;99.90
21559;DHT22;10940;48.890;8.240;2022-10-13T01:28:34;10.80;99.90
21559;DHT22;10940;48.890;8.240;2022-10-13T01:31:17;10.80;99.90
21559;DHT22;10940;48.890;8.240;2022-10-13T01:39:02;11.00;99.90
21559;DHT22;10940;48.890;8.240;2022-10-13T01:41:41;11.20;99.90
21559;DHT22;10940;48.890;8.240;2022-10-13T01:44:16;11.20;99.90
21559;DHT22;10940;48.890;8.240;2022-10-13T01:46:46;11.20;99.90
21559;DHT22;10940;48.890;8.240;2022-10-13T01:49:15;11.20;99.90
21559;DHT22;10940;48.890;8.240;2022-10-13T01:51:42;11.30;99.90
21559;DHT22;10940;48.890;8.240;2022-10-13T01:54:08;11.40;99.90
21559;DHT22;10940;48.890;8.240;2022-10-13T01:56:34;11.50;99.90
21559;DHT22;10940;48.890;8.240;2022-10-13T01:59:03;11.40;99.90
21559;DHT22;10940;48.890;8.240;2022-10-13T02:04:55;11.50;99.90
21559;DHT22;10940;48.890;8.240;2022-10-13T02:12:49;11.40;99.90
21559;DHT22;10940;48.890;8.240;2022-10-13T02:15:20;11.50;99.90
21559;DHT22;10940;48.890;8.240;2022-10-13T02:17:46;11.50;99.90
21559;DHT22;10940;48.890;8.240;2022-10-13T02:20:13;11.40;99.90
21559;DHT22;10940;48.890;8.240;2022-10-13T02:22:44;11.40;99.90
21559;DHT22;10940;48.890;8.240;2022-10-13T02:25:10;11.40;99.90
21559;DHT22;10940;48.890;8.240;2022-10-13T02:27:36;11.40;99.90
21559;DHT22;10940;48.890;8.240;2022-10-13T02:30:02;11.40;99.90
21559;DHT22;10940;48.890;8.240;2022-10-13T02:32:28;11.40;99.90
21559;DHT22;10940;48.890;8.240;2022-10-13T02:34:54;11.40;99.90
21559;DHT22;10940;48.890;8.240;2022-10-13T02:37:20;11.40;99.90
21559;DHT22;10940;48.890;8.240;2022-10-13T02:39:45;11.40;99.90
21559;DHT22;10940;48.890;8.240;2022-10-13T02:42:11;11.40;99.90
21559;DHT22;10940;48.890;8.240;2022-10-13T02:44:37;11.40;99.90
21559;DHT22;10940;48.890;8.240;2022-10-13T02:47:04;11.40;99.90
21559;DHT22;10940;48.890;8.240;2022-10-13T02:49:30;11.40;99.90
21559;DHT22;10940;48.890;8.240;2022-10-13T02:51:55;11.40;99.90
21559;DHT22;10940;48.890;8.240;2022-10-13T02:54:21;11.30;99.90
21559;DHT22;10940;48.890;8.240;2022-10-13T02:56:47;11.40;99.90
21559;DHT22;10940;48.890;8.240;2022-10-13T02:59:12;11.40;99.90
21559;DHT22;10940;48.890;8.240;2022-10-13T03:01:38;11.40;99.90
21559;DHT22;10940;48.890;8.240;2022-10-13T03:04:07;11.40;99.90
21559;DHT22;10940;48.890;8.240;2022-10-13T03:06:32;11.40;99.90
21559;DHT22;10940;48.890;8.240;2022-10-13T03:08:58;11.40;99.90
21559;DHT22;10940;48.890;8.240;2022-10-13T03:11:24;11.40;99.90
21559;DHT22;10940;48.890;8.240;2022-10-13T03:13:50;11.40;99.90
21559;DHT22;10940;48.890;8.240;2022-10-13T03:16:15;11.40;99.90
21559;DHT22;10940;48.890;8.240;2022-10-13T03:18:41;11.40;99.90
21559;DHT22;10940;48.890;8.240;2022-10-13T03:21:06;11.40;99.90
21559;DHT22;10940;48.890;8.240;2022-10-13T03:23:32;11.40;99.90
21559;DHT22;10940;48.890;8.240;2022-10-13T03:25:59;11.50;99.90
21559;DHT22;10940;48.890;8.240;2022-10-13T03:28:25;11.60;99.90
21559;DHT22;10940;48.890;8.240;2022-10-13T03:30:59;11.60;99.90
21559;DHT22;10940;48.890;8.240;2022-10-13T03:33:25;11.60;99.90
21559;DHT22;10940;48.890;8.240;2022-10-13T03:35:51;11.60;99.90
21559;DHT22;10940;48.890;8.240;2022-10-13T03:38:16;11.60;99.90
21559;DHT22;10940;48.890;8.240;2022-10-13T03:40:42;11.60;99.90
21559;DHT22;10940;48.890;8.240;2022-10-13T03:43:07;11.60;99.90
21559;DHT22;10940;48.890;8.240;2022-10-13T03:45:33;11.60;99.90
21559;DHT22;10940;48.890;8.240;2022-10-13T03:47:59;11.50;99.90
21559;DHT22;10940;48.890;8.240;2022-10-13T03:50:24;11.50;99.90
21559;DHT22;10940;48.890;8.240;2022-10-13T03:52:50;11.50;99.90
21559;DHT22;10940;48.890;8.240;2022-10-13T03:55:16;11.50;99.90
21559;DHT22;10940;48.890;8.240;2022-10-13T03:57:41;11.40;99.90
21559;DHT22;10940;48.890;8.240;2022-10-13T04:00:07;11.50;99.90
21559;DHT22;10940;48.890;8.240;2022-10-13T04:02:35;11.40;99.90
21559;DHT22;10940;48.890;8.240;2022-10-13T04:05:00;11.50;99.90
21559;DHT22;10940;48.890;8.240;2022-10-13T04:07:26;11.50;99.90
21559;DHT22;10940;48.890;8.240;2022-10-13T04:09:52;11.40;99.90
21559;DHT22;10940;48.890;8.240;2022-10-13T04:12:18;11.40;99.90
21559;DHT22;10940;48.890;8.240;2022-10-13T04:14:43;11.40;99.90
21559;DHT22;10940;48.890;8.240;2022-10-13T04:17:09;11.30;99.90
21559;DHT22;10940;48.890;8.240;2022-10-13T04:19:35;11.40;99.90
21559;DHT22;10940;48.890;8.240;2022-10-13T04:22:00;11.30;99.90
21559;DHT22;10940;48.890;8.240;2022-10-13T04:24:26;11.30;99.90
21559;DHT22;10940;48.890;8.240;2022-10-13T04:26:51;11.30;99.90
21559;DHT22;10940;48.890;8.240;2022-10-13T04:29:17;11.30;99.90
21559;DHT22;10940;48.890;8.240;2022-10-13T04:31:43;11.40;99.90
21559;DHT22;10940;48.890;8.240;2022-10-13T04:34:09;11.40;99.90
21559;DHT22;10940;48.890;8.240;2022-10-13T04:36:35;11.30;99.90
21559;DHT22;10940;48.890;8.240;2022-10-13T04:39:01;11.40;99.90
21559;DHT22;10940;48.890;8.240;2022-10-13T04:41:26;11.30;99.90
21559;DHT22;10940;48.890;8.240;2022-10-13T04:43:53;11.30;99.90
21559;DHT22;10940;48.890;8.240;2022-10-13T04:46:25;11.20;99.90
21559;DHT22;10940;48.890;8.240;2022-10-13T04:48:51;11.20;99.90
21559;DHT22;10940;48.890;8.240;2022-10-13T04:51:19;11.20;99.90
21559;DHT22;10940;48.890;8.240;2022-10-13T04:53:46;11.20;99.90
21559;DHT22;10940;48.890;8.240;2022-10-13T04:56:14;11.20;99.90
21559;DHT22;10940;48.890;8.240;2022-10-13T04:58:41;11.10;99.90
21559;DHT22;10940;48.890;8.240;2022-10-13T05:01:12;11.10;99.90
21559;DHT22;10940;48.890;8.240;2022-10-13T05:03:37;11.00;99.90
21559;DHT22;10940;48.890;8.240;2022-10-13T05:06:03;10.90;99.90
21559;DHT22;10940;48.890;8.240;2022-10-13T05:08:29;10.90;99.90
21559;DHT22;10940;48.890;8.240;2022-10-13T05:10:59;10.90;99.90
21559;DHT22;10940;48.890;8.240;2022-10-13T05:13:27;10.90;99.90
21559;DHT22;10940;48.890;8.240;2022-10-13T05:15:53;10.90;99.90
21559;DHT22;10940;48.890;8.240;2022-10-13T05:18:18;10.80;99.90
21559;DHT22;10940;48.890;8.240;2022-10-13T05:20:44;10.80;99.90
21559;DHT22;10940;48.890;8.240;2022-10-13T05:23:11;10.70;99.90
21559;DHT22;10940;48.890;8.240;2022-10-13T05:25:36;10.70;99.90
21559;DHT22;10940;48.890;8.240;2022-10-13T05:28:06;10.60;99.90
21559;DHT22;10940;48.890;8.240;2022-10-13T05:30:32;10.60;99.90
21559;DHT22;10940;48.890;8.240;2022-10-13T05:32:58;10.70;99.90
21559;DHT22;10940;48.890;8.240;2022-10-13T05:35:25;10.70;99.90
21559;DHT22;10940;48.890;8.240;2022-10-13T05:37:51;10.70;99.90
21559;DHT22;10940;48.890;8.240;2022-10-13T05:40:16;10.70;99.90
21559;DHT22;10940;48.890;8.240;2022-10-13T05:42:42;10.70;99.90
21559;DHT22;10940;48.890;8.240;2022-10-13T05:45:11;10.70;99.90
21559;DHT22;10940;48.890;8.240;2022-10-13T05:47:37;10.70;99.90
21559;DHT22;10940;48.890;8.240;2022-10-13T05:50:02;10.70;99.90
21559;DHT22;10940;48.890;8.240;2022-10-13T05:52:28;10.70;99.90
21559;DHT22;10940;48.890;8.240;2022-10-13T05:54:59;10.80;99.90
21559;DHT22;10940;48.890;8.240;2022-10-13T05:57:30;10.80;99.90
21559;DHT22;10940;48.890;8.240;2022-10-13T06:00:16;10.80;99.90
21559;DHT22;10940;48.890;8.240;2022-10-13T06:05:16;11.00;99.90
21559;DHT22;10940;48.890;8.240;2022-10-13T06:07:43;11.10;99.90
21559;DHT22;10940;48.890;8.240;2022-10-13T06:10:10;11.10;99.90
21559;DHT22;10940;48.890;8.240;2022-10-13T06:12:36;11.20;99.90
21559;DHT22;10940;48.890;8.240;2022-10-13T06:15:02;11.20;99.90
21559;DHT22;10940;48.890;8.240;2022-10-13T06:17:27;11.20;99.90
21559;DHT22;10940;48.890;8.240;2022-10-13T06:19:53;11.20;99.90
21559;DHT22;10940;48.890;8.240;2022-10-13T06:22:18;11.20;99.90
21559;DHT22;10940;48.890;8.240;2022-10-13T06:24:46;11.10;99.90
21559;DHT22;10940;48.890;8.240;2022-10-13T06:27:11;11.10;99.90
21559;DHT22;10940;48.890;8.240;2022-10-13T06:29:37;11.00;99.90
21559;DHT22;10940;48.890;8.240;2022-10-13T06:32:03;11.10;99.90
21559;DHT22;10940;48.890;8.240;2022-10-13T06:34:29;11.00;99.90
21559;DHT22;10940;48.890;8.240;2022-10-13T06:36:55;11.00;99.90
21559;DHT22;10940;48.890;8.240;2022-10-13T06:39:20;11.10;99.90
21559;DHT22;10940;48.890;8.240;2022-10-13T06:41:46;11.10;99.90
21559;DHT22;10940;48.890;8.240;2022-10-13T06:44:13;11.10;99.90
21559;DHT22;10940;48.890;8.240;2022-10-13T06:46:38;11.20;99.90
21559;DHT22;10940;48.890;8.240;2022-10-13T06:49:04;11.20;99.90
21559;DHT22;10940;48.890;8.240;2022-10-13T06:51:29;11.20;99.90
21559;DHT22;10940;48.890;8.240;2022-10-13T06:53:55;11.20;99.90
21559;DHT22;10940;48.890;8.240;2022-10-13T06:56:21;11.10;99.90
21559;DHT22;10940;48.890;8.240;2022-10-13T06:58:47;11.10;99.90
21559;DHT22;10940;48.890;8.240;2022-10-13T07:01:13;11.10;99.90
21559;DHT22;10940;48.890;8.240;2022-10-13T07:03:39;11.10;99.90
21559;DHT22;10940;48.890;8.240;2022-10-13T07:06:05;11.10;99.90
21559;DHT22;10940;48.890;8.240;2022-10-13T07:08:32;11.10;99.90
21559;DHT22;10940;48.890;8.240;2022-10-13T07:10:58;11.10;99.90
21559;DHT22;10940;48.890;8.240;2022-10-13T07:13:24;11.20;99.90
21559;DHT22;10940;48.890;8.240;2022-10-13T07:15:50;11.20;99.90
21559;DHT22;10940;48.890;8.240;2022-10-13T07:18:16;11.30;99.90
21559;DHT22;10940;48.890;8.240;2022-10-13T07:20:41;11.40;99.90
21559;DHT22;10940;48.890;8.240;2022-10-13T07:23:07;11.50;99.90
21559;DHT22;10940;48.890;8.240;2022-10-13T07:25:33;11.50;99.90
21559;DHT22;10940;48.890;8.240;2022-10-13T07:27:58;11.50;99.90
21559;DHT22;10940;48.890;8.240;2022-10-13T07:30:25;11.60;99.90
21559;DHT22;10940;48.890;8.240;2022-10-13T07:32:50;11.70;99.90
21559;DHT22;10940;48.890;8.240;2022-10-13T07:35:16;11.70;99.90
21559;DHT22;10940;48.890;8.240;2022-10-13T07:37:42;11.80;99.90
21559;DHT22;10940;48.890;8.240;2022-10-13T07:40:08;11.90;99.90
21559;DHT22;10940;48.890;8.240;2022-10-13T07:42:34;11.90;99.90
21559;DHT22;10940;48.890;8.240;2022-10-13T07:44:59;12.00;99.90
21559;DHT22;10940;48.890;8.240;2022-10-13T07:47:25;12.00;99.90
21559;DHT22;10940;48.890;8.240;2022-10-13T07:49:50;12.00;99.90
21559;DHT22;10940;48.890;8.240;2022-10-13T07:52:16;12.00;99.90
21559;DHT22;10940;48.890;8.240;2022-10-13T07:54:42;12.00;99.90
21559;DHT22;10940;48.890;8.240;2022-10-13T07:57:07;12.10;99.90
21559;DHT22;10940;48.890;8.240;2022-10-13T07:59:33;12.20;99.90
21559;DHT22;10940;48.890;8.240;2022-10-13T08:02:00;12.20;99.90
21559;DHT22;10940;48.890;8.240;2022-10-13T08:04:30;12.30;99.90
21559;DHT22;10940;48.890;8.240;2022-10-13T08:06:55;12.30;99.90
21559;DHT22;10940;48.890;8.240;2022-10-13T08:09:21;12.30;99.90
21559;DHT22;10940;48.890;8.240;2022-10-13T08:11:47;12.30;99.90
21559;DHT22;10940;48.890;8.240;2022-10-13T08:14:13;12.40;99.90
21559;DHT22;10940;48.890;8.240;2022-10-13T08:16:38;12.50;99.90
21559;DHT22;10940;48.890;8.240;2022-10-13T08:19:06;12.60;99.90
21559;DHT22;10940;48.890;8.240;2022-10-13T08:21:31;12.60;99.90
21559;DHT22;10940;48.890;8.240;2022-10-13T08:23:57;12.70;99.90
21559;DHT22;10940;48.890;8.240;2022-10-13T08:26:26;12.80;99.90
21559;DHT22;10940;48.890;8.240;2022-10-13T08:28:52;12.90;99.90
21559;DHT22;10940;48.890;8.240;2022-10-13T08:31:19;13.00;99.90
21559;DHT22;10940;48.890;8.240;2022-10-13T08:33:45;13.10;99.90
21559;DHT22;10940;48.890;8.240;2022-10-13T08:36:15;13.20;99.90
21559;DHT22;10940;48.890;8.240;2022-10-13T08:38:42;13.30;99.90
21559;DHT22;10940;48.890;8.240;2022-10-13T08:41:29;13.30;99.90
21559;DHT22;10940;48.890;8.240;2022-10-13T08:44:00;13.40;99.90
21559;DHT22;10940;48.890;8.240;2022-10-13T08:46:38;13.50;99.90
21559;DHT22;10940;48.890;8.240;2022-10-13T08:49:06;13.40;99.90
21559;DHT22;10940;48.890;8.240;2022-10-13T08:51:32;13.40;99.90
21559;DHT22;10940;48.890;8.240;2022-10-13T08:53:58;13.40;99.90
21559;DHT22;10940;48.890;8.240;2022-10-13T08:56:27;13.50;99.90
21559;DHT22;10940;48.890;8.240;2022-10-13T08:58:55;13.50;99.90
21559;DHT22;10940;48.890;8.240;2022-10-13T09:01:35;13.40;99.90
21559;DHT22;10940;48.890;8.240;2022-10-13T09:04:15;13.40;99.90
21559;DHT22;10940;48.890;8.240;2022-10-13T09:09:34;13.50;99.90
21559;DHT22;10940;48.890;8.240;2022-10-13T09:12:00;13.50;99.90
21559;DHT22;10940;48.890;8.240;2022-10-13T09:14:28;13.40;99.90
21559;DHT22;10940;48.890;8.240;2022-10-13T09:16:58;13.50;99.90
21559;DHT22;10940;48.890;8.240;2022-10-13T09:19:36;13.50;99.90
21559;DHT22;10940;48.890;8.240;2022-10-13T09:22:21;13.50;99.90
21559;DHT22;10940;48.890;8.240;2022-10-13T09:27:51;13.50;99.90
21559;DHT22;10940;48.890;8.240;2022-10-13T09:30:33;13.50;99.90
21559;DHT22;10940;48.890;8.240;2022-10-13T09:35:37;13.50;99.90
21559;DHT22;10940;48.890;8.240;2022-10-13T09:38:05;13.50;99.90
21559;DHT22;10940;48.890;8.240;2022-10-13T09:40:31;13.50;99.90
21559;DHT22;10940;48.890;8.240;2022-10-13T09:42:59;13.60;99.90
21559;DHT22;10940;48.890;8.240;2022-10-13T09:45:26;13.60;99.90
21559;DHT22;10940;48.890;8.240;2022-10-13T09:47:58;13.70;99.90
21559;DHT22;10940;48.890;8.240;2022-10-13T09:50:27;13.80;99.90
21559;DHT22;10940;48.890;8.240;2022-10-13T09:52:54;13.90;99.90
21559;DHT22;10940;48.890;8.240;2022-10-13T09:55:34;14.00;99.90
21559;DHT22;10940;48.890;8.240;2022-10-13T09:58:24;14.10;99.90
21559;DHT22;10940;48.890;8.240;2022-10-13T10:00:52;14.20;99.90
21559;DHT22;10940;48.890;8.240;2022-10-13T10:03:26;14.30;99.90
21559;DHT22;10940;48.890;8.240;2022-10-13T10:05:56;14.40;99.90
21559;DHT22;10940;48.890;8.240;2022-10-13T10:08:41;14.50;99.90
21559;DHT22;10940;48.890;8.240;2022-10-13T10:11:14;14.50;99.90
21559;DHT22;10940;48.890;8.240;2022-10-13T10:13:41;14.50;99.90
21559;DHT22;10940;48.890;8.240;2022-10-13T10:22:13;14.80;99.90
21559;DHT22;10940;48.890;8.240;2022-10-13T10:24:51;15.00;99.90
21559;DHT22;10940;48.890;8.240;2022-10-13T10:27:23;15.00;99.90
21559;DHT22;10940;48.890;8.240;2022-10-13T10:29:55;15.10;99.90
21559;DHT22;10940;48.890;8.240;2022-10-13T10:35:13;15.20;99.90
21559;DHT22;10940;48.890;8.240;2022-10-13T10:43:37;15.30;99.90
21559;DHT22;10940;48.890;8.240;2022-10-13T10:46:14;15.30;99.90
21559;DHT22;10940;48.890;8.240;2022-10-13T10:48:43;15.20;99.90
21559;DHT22;10940;48.890;8.240;2022-10-13T10:51:10;15.30;99.90
21559;DHT22;10940;48.890;8.240;2022-10-13T10:54:00;15.40;99.90
21559;DHT22;10940;48.890;8.240;2022-10-13T10:56:39;15.40;99.90
21559;DHT22;10940;48.890;8.240;2022-10-13T11:04:48;15.40;99.90
21559;DHT22;10940;48.890;8.240;2022-10-13T11:15:07;15.40;99.90
21559;DHT22;10940;48.890;8.240;2022-10-13T11:17:35;15.40;99.90
21559;DHT22;10940;48.890;8.240;2022-10-13T11:33:52;15.50;99.90
21559;DHT22;10940;48.890;8.240;2022-10-13T11:36:50;15.60;99.90
21559;DHT22;10940;48.890;8.240;2022-10-13T11:44:57;16.00;99.90
21559;DHT22;10940;48.890;8.240;2022-10-13T11:55:21;16.60;99.90
21559;DHT22;10940;48.890;8.240;2022-10-13T11:57:49;16.60;99.90
21559;DHT22;10940;48.890;8.240;2022-10-13T12:00:17;16.60;99.90
21559;DHT22;10940;48.890;8.240;2022-10-13T12:02:51;16.70;99.90
21559;DHT22;10940;48.890;8.240;2022-10-13T12:05:26;16.70;99.90
21559;DHT22;10940;48.890;8.240;2022-10-13T12:08:00;16.70;99.90
21559;DHT22;10940;48.890;8.240;2022-10-13T12:10:34;16.70;99.90
21559;DHT22;10940;48.890;8.240;2022-10-13T12:13:00;16.70;99.90
21559;DHT22;10940;48.890;8.240;2022-10-13T12:15:41;16.70;99.90
21559;DHT22;10940;48.890;8.240;2022-10-13T12:18:26;16.70;99.90
21559;DHT22;10940;48.890;8.240;2022-10-13T12:21:02;16.70;99.90
21559;DHT22;10940;48.890;8.240;2022-10-13T12:23:30;16.80;99.90
21559;DHT22;10940;48.890;8.240;2022-10-13T12:25:57;16.70;99.90
21559;DHT22;10940;48.890;8.240;2022-10-13T12:28:30;16.70;99.90
21559;DHT22;10940;48.890;8.240;2022-10-13T12:31:16;16.60;99.90
21559;DHT22;10940;48.890;8.240;2022-10-13T12:33:42;16.70;99.90
21559;DHT22;10940;48.890;8.240;2022-10-13T12:36:19;16.70;99.90
21559;DHT22;10940;48.890;8.240;2022-10-13T12:38:49;16.80;99.90
21559;DHT22;10940;48.890;8.240;2022-10-13T12:41:27;16.80;99.90
21559;DHT22;10940;48.890;8.240;2022-10-13T12:43:54;16.80;99.90
21559;DHT22;10940;48.890;8.240;2022-10-13T12:46:44;16.90;99.90
21559;DHT22;10940;48.890;8.240;2022-10-13T12:49:14;16.90;99.90
21559;DHT22;10940;48.890;8.240;2022-10-13T12:51:41;17.00;99.90
21559;DHT22;10940;48.890;8.240;2022-10-13T12:54:23;17.00;99.90
21559;DHT22;10940;48.890;8.240;2022-10-13T12:56:51;17.00;99.90
21559;DHT22;10940;48.890;8.240;2022-10-13T12:59:19;17.00;99.90
21559;DHT22;10940;48.890;8.240;2022-10-13T13:01:52;16.90;99.90
21559;DHT22;10940;48.890;8.240;2022-10-13T13:06:53;17.10;99.90
21559;DHT22;10940;48.890;8.240;2022-10-13T13:14:41;17.30;99.90
21559;DHT22;10940;48.890;8.240;2022-10-13T13:19:44;17.30;99.90
21559;DHT22;10940;48.890;8.240;2022-10-13T13:22:10;17.30;99.90
21559;DHT22;10940;48.890;8.240;2022-10-13T13:24:36;17.30;99.90
21559;DHT22;10940;48.890;8.240;2022-10-13T13:27:27;17.30;99.90
21559;DHT22;10940;48.890;8.240;2022-10-13T13:29:56;17.30;99.90
21559;DHT22;10940;48.890;8.240;2022-10-13T13:32:24;17.40;99.90
21559;DHT22;10940;48.890;8.240;2022-10-13T13:34:51;17.40;99.90
21559;DHT22;10940;48.890;8.240;2022-10-13T13:37:35;17.40;99.90
21559;DHT22;10940;48.890;8.240;2022-10-13T13:40:02;17.40;99.90
21559;DHT22;10940;48.890;8.240;2022-10-13T13:42:29;17.40;99.90
21559;DHT22;10940;48.890;8.240;2022-10-13T13:44:58;17.40;99.90
21559;DHT22;10940;48.890;8.240;2022-10-13T13:47:26;17.40;99.90
21559;DHT22;10940;48.890;8.240;2022-10-13T13:49:53;17.40;99.90
21559;DHT22;10940;48.890;8.240;2022-10-13T13:52:19;17.40;99.90
21559;DHT22;10940;48.890;8.240;2022-10-13T13:54:47;17.40;99.90
21559;DHT22;10940;48.890;8.240;2022-10-13T13:57:14;17.50;99.90
21559;DHT22;10940;48.890;8.240;2022-10-13T13:59:40;17.60;99.90
21559;DHT22;10940;48.890;8.240;2022-10-13T14:02:15;17.70;99.90
21559;DHT22;10940;48.890;8.240;2022-10-13T14:04:41;17.70;99.90
21559;DHT22;10940;48.890;8.240;2022-10-13T14:07:07;17.80;99.90
21559;DHT22;10940;48.890;8.240;2022-10-13T14:09:32;17.70;99.90
21559;DHT22;10940;48.890;8.240;2022-10-13T14:11:58;17.70;99.90
21559;DHT22;10940;48.890;8.240;2022-10-13T14:14:24;17.70;99.90
21559;DHT22;10940;48.890;8.240;2022-10-13T14:16:50;17.70;99.90
21559;DHT22;10940;48.890;8.240;2022-10-13T14:19:16;17.60;99.90
21559;DHT22;10940;48.890;8.240;2022-10-13T14:21:41;17.60;99.90
21559;DHT22;10940;48.890;8.240;2022-10-13T14:24:09;17.60;99.90
21559;DHT22;10940;48.890;8.240;2022-10-13T14:26:35;17.60;99.90
21559;DHT22;10940;48.890;8.240;2022-10-13T14:29:00;17.50;99.90
21559;DHT22;10940;48.890;8.240;2022-10-13T14:31:26;17.50;99.90
21559;DHT22;10940;48.890;8.240;2022-10-13T14:33:52;17.50;99.90
21559;DHT22;10940;48.890;8.240;2022-10-13T14:36:17;17.50;99.90
21559;DHT22;10940;48.890;8.240;2022-10-13T14:38:43;17.50;99.90
21559;DHT22;10940;48.890;8.240;2022-10-13T14:41:09;17.50;99.90
21559;DHT22;10940;48.890;8.240;2022-10-13T14:43:34;17.50;99.90
21559;DHT22;10940;48.890;8.240;2022-10-13T14:46:02;17.50;99.90
21559;DHT22;10940;48.890;8.240;2022-10-13T14:48:35;17.50;99.90
21559;DHT22;10940;48.890;8.240;2022-10-13T14:51:05;17.50;99.90
21559;DHT22;10940;48.890;8.240;2022-10-13T14:53:35;17.40;99.90
21559;DHT22;10940;48.890;8.240;2022-10-13T14:56:02;17.30;99.90
21559;DHT22;10940;48.890;8.240;2022-10-13T14:58:28;17.40;99.90
21559;DHT22;10940;48.890;8.240;2022-10-13T15:00:53;17.40;99.90
21559;DHT22;10940;48.890;8.240;2022-10-13T15:03:21;17.30;99.90
21559;DHT22;10940;48.890;8.240;2022-10-13T15:05:46;17.30;99.90
21559;DHT22;10940;48.890;8.240;2022-10-13T15:08:12;17.40;99.90
21559;DHT22;10940;48.890;8.240;2022-10-13T15:10:37;17.40;99.90
21559;DHT22;10940;48.890;8.240;2022-10-13T15:13:03;17.30;99.90
21559;DHT22;10940;48.890;8.240;2022-10-13T15:15:29;17.30;99.90
21559;DHT22;10940;48.890;8.240;2022-10-13T15:17:54;17.30;99.90
21559;DHT22;10940;48.890;8.240;2022-10-13T15:20:20;17.30;99.90
21559;DHT22;10940;48.890;8.240;2022-10-13T15:22:46;17.30;99.90
21559;DHT22;10940;48.890;8.240;2022-10-13T15:25:12;17.20;99.90
21559;DHT22;10940;48.890;8.240;2022-10-13T15:27:38;17.30;99.90
21559;DHT22;10940;48.890;8.240;2022-10-13T15:30:07;17.30;99.90
21559;DHT22;10940;48.890;8.240;2022-10-13T15:32:33;17.20;99.90
21559;DHT22;10940;48.890;8.240;2022-10-13T15:34:58;17.20;99.90
21559;DHT22;10940;48.890;8.240;2022-10-13T15:37:24;17.20;99.90
21559;DHT22;10940;48.890;8.240;2022-10-13T15:39:50;17.20;99.90
21559;DHT22;10940;48.890;8.240;2022-10-13T15:42:16;17.10;99.90
21559;DHT22;10940;48.890;8.240;2022-10-13T15:44:41;17.00;99.90
21559;DHT22;10940;48.890;8.240;2022-10-13T15:47:07;17.00;99.90
21559;DHT22;10940;48.890;8.240;2022-10-13T15:49:35;16.90;99.90
21559;DHT22;10940;48.890;8.240;2022-10-13T15:52:03;16.90;99.90
21559;DHT22;10940;48.890;8.240;2022-10-13T15:54:29;16.90;99.90
21559;DHT22;10940;48.890;8.240;2022-10-13T15:56:55;16.90;99.90
21559;DHT22;10940;48.890;8.240;2022-10-13T15:59:21;16.90;99.90
21559;DHT22;10940;48.890;8.240;2022-10-13T16:01:46;16.80;99.90
21559;DHT22;10940;48.890;8.240;2022-10-13T16:04:12;16.80;99.90
21559;DHT22;10940;48.890;8.240;2022-10-13T16:06:37;16.70;99.90
21559;DHT22;10940;48.890;8.240;2022-10-13T16:09:03;16.70;99.90
21559;DHT22;10940;48.890;8.240;2022-10-13T16:11:29;16.70;99.90
21559;DHT22;10940;48.890;8.240;2022-10-13T16:13:55;16.60;99.90
21559;DHT22;10940;48.890;8.240;2022-10-13T16:16:20;16.60;99.90
21559;DHT22;10940;48.890;8.240;2022-10-13T16:18:49;16.60;99.90
21559;DHT22;10940;48.890;8.240;2022-10-13T16:21:18;16.50;99.90
21559;DHT22;10940;48.890;8.240;2022-10-13T16:23:47;16.40;99.90
21559;DHT22;10940;48.890;8.240;2022-10-13T16:26:14;16.40;99.90
21559;DHT22;10940;48.890;8.240;2022-10-13T16:28:41;16.40;99.90
21559;DHT22;10940;48.890;8.240;2022-10-13T16:31:09;16.30;99.90
21559;DHT22;10940;48.890;8.240;2022-10-13T16:33:39;16.30;99.90
21559;DHT22;10940;48.890;8.240;2022-10-13T16:36:10;16.30;99.90
21559;DHT22;10940;48.890;8.240;2022-10-13T16:38:36;16.20;99.90
21559;DHT22;10940;48.890;8.240;2022-10-13T16:41:06;16.10;99.90
21559;DHT22;10940;48.890;8.240;2022-10-13T16:43:33;16.10;99.90
21559;DHT22;10940;48.890;8.240;2022-10-13T16:46:00;16.10;99.90
21559;DHT22;10940;48.890;8.240;2022-10-13T16:48:28;16.20;99.90
21559;DHT22;10940;48.890;8.240;2022-10-13T16:50:54;16.10;99.90
21559;DHT22;10940;48.890;8.240;2022-10-13T16:53:20;16.10;99.90
21559;DHT22;10940;48.890;8.240;2022-10-13T16:55:45;16.00;99.90
21559;DHT22;10940;48.890;8.240;2022-10-13T16:58:11;16.10;99.90
21559;DHT22;10940;48.890;8.240;2022-10-13T17:00:37;16.00;99.90
21559;DHT22;10940;48.890;8.240;2022-10-13T17:03:03;16.00;99.90
21559;DHT22;10940;48.890;8.240;2022-10-13T17:05:29;16.00;99.90
21559;DHT22;10940;48.890;8.240;2022-10-13T17:07:55;15.90;99.90
21559;DHT22;10940;48.890;8.240;2022-10-13T17:10:20;15.90;99.90
21559;DHT22;10940;48.890;8.240;2022-10-13T17:12:46;15.80;99.90
21559;DHT22;10940;48.890;8.240;2022-10-13T17:15:13;15.80;99.90
21559;DHT22;10940;48.890;8.240;2022-10-13T17:17:39;15.80;99.90